OSE125 LICA-LIRN
Flight info
| Callsign | OSE125 |
|---|---|
| Flight time | 0h 51m |
| Altitude | 30000 |
| Route | GIROV DCT AGNIS DCT DELER DCT SOR |
| Aircraft | B738/M-SDE2E3FGHIRWXY/LB1 |
Departure
| Time | 2026-04-20 16:57 |
|---|---|
| Airport | Lamezia Terme Sant'Eufemia International Airport (LICA) |
Arrival
| Time | 2026-04-20 17:48 |
|---|---|
| Airport | Naples International Airport (LIRN) |
| Time | Latitude | Longitude | Altitude | Speed | Heading |
|---|---|---|---|---|---|
| 2026-04-20 16:52 | 38.90395 | 16.25479 | 47 ft | 0 kts | 278° |
| 2026-04-20 16:55 | 38.90395 | 16.25478 | 47 ft | 0 kts | 278° |
| 2026-04-20 16:56 | 38.90395 | 16.25477 | 47 ft | 3 kts | 278° |
| 2026-04-20 16:56 | 38.90434 | 16.25158 | 46 ft | 70 kts | 278° |
| 2026-04-20 16:56 | 38.90537 | 16.24283 | 36 ft | 129 kts | 278° |
| 2026-04-20 16:56 | 38.90692 | 16.22929 | 104 ft | 171 kts | 278° |
| 2026-04-20 16:57 | 38.90873 | 16.21380 | 595 ft | 175 kts | 277° |
| 2026-04-20 16:57 | 38.91061 | 16.19846 | 1314 ft | 173 kts | 277° |
| 2026-04-20 16:57 | 38.91240 | 16.18308 | 1884 ft | 178 kts | 278° |
| 2026-04-20 16:57 | 38.91428 | 16.16661 | 2102 ft | 198 kts | 278° |
| 2026-04-20 16:58 | 38.91634 | 16.14848 | 2281 ft | 210 kts | 278° |
| 2026-04-20 16:58 | 38.91860 | 16.12958 | 2433 ft | 225 kts | 283° |
| 2026-04-20 16:58 | 38.92623 | 16.11142 | 2644 ft | 239 kts | 310° |
| 2026-04-20 16:58 | 38.93767 | 16.09537 | 3061 ft | 248 kts | 312° |
| 2026-04-20 16:59 | 38.94921 | 16.07875 | 3684 ft | 249 kts | 309° |
| 2026-04-20 16:59 | 38.96031 | 16.06171 | 4348 ft | 249 kts | 309° |
| 2026-04-20 16:59 | 38.97141 | 16.04450 | 4968 ft | 251 kts | 309° |
| 2026-04-20 16:59 | 38.98267 | 16.02715 | 5531 ft | 255 kts | 309° |
| 2026-04-20 17:00 | 39.00575 | 15.99191 | 6679 ft | 260 kts | 309° |
| 2026-04-20 17:00 | 39.01746 | 15.97410 | 7258 ft | 261 kts | 310° |
| 2026-04-20 17:00 | 39.02921 | 15.95623 | 7845 ft | 262 kts | 310° |
| 2026-04-20 17:01 | 39.04083 | 15.93856 | 8438 ft | 262 kts | 310° |
| 2026-04-20 17:01 | 39.05263 | 15.92060 | 9031 ft | 264 kts | 310° |
| 2026-04-20 17:01 | 39.06449 | 15.90254 | 9622 ft | 265 kts | 310° |
| 2026-04-20 17:01 | 39.07641 | 15.88439 | 10036 ft | 267 kts | 310° |
| 2026-04-20 17:02 | 39.08843 | 15.86607 | 10034 ft | 267 kts | 310° |
| 2026-04-20 17:02 | 39.10039 | 15.84783 | 10056 ft | 267 kts | 310° |
| 2026-04-20 17:02 | 39.11236 | 15.82956 | 10054 ft | 267 kts | 310° |
| 2026-04-20 17:02 | 39.12433 | 15.81129 | 10065 ft | 267 kts | 310° |
| 2026-04-20 17:03 | 39.13631 | 15.79299 | 10064 ft | 267 kts | 310° |
| 2026-04-20 17:03 | 39.14811 | 15.77494 | 10127 ft | 264 kts | 310° |
| 2026-04-20 17:03 | 39.15980 | 15.75705 | 10608 ft | 262 kts | 310° |
| 2026-04-20 17:03 | 39.17161 | 15.73898 | 11034 ft | 266 kts | 310° |
| 2026-04-20 17:04 | 39.18359 | 15.72064 | 11479 ft | 269 kts | 310° |
| 2026-04-20 17:04 | 39.19570 | 15.70208 | 11927 ft | 272 kts | 310° |
| 2026-04-20 17:04 | 39.20793 | 15.68334 | 12385 ft | 274 kts | 311° |
| 2026-04-20 17:04 | 39.22024 | 15.66445 | 12845 ft | 276 kts | 311° |
| 2026-04-20 17:05 | 39.23250 | 15.64566 | 13306 ft | 279 kts | 311° |
| 2026-04-20 17:05 | 39.24504 | 15.62642 | 13795 ft | 281 kts | 311° |
| 2026-04-20 17:05 | 39.25770 | 15.60699 | 14223 ft | 284 kts | 311° |
| 2026-04-20 17:05 | 39.27043 | 15.58744 | 14658 ft | 286 kts | 311° |
| 2026-04-20 17:06 | 39.28326 | 15.56772 | 15086 ft | 288 kts | 311° |
| 2026-04-20 17:06 | 39.29615 | 15.54790 | 15529 ft | 289 kts | 311° |
| 2026-04-20 17:06 | 39.30910 | 15.52795 | 15972 ft | 290 kts | 311° |
| 2026-04-20 17:06 | 39.32211 | 15.50792 | 16424 ft | 292 kts | 311° |
| 2026-04-20 17:07 | 39.33515 | 15.48782 | 16864 ft | 293 kts | 311° |
| 2026-04-20 17:07 | 39.34823 | 15.46765 | 17161 ft | 300 kts | 311° |
| 2026-04-20 17:07 | 39.36171 | 15.44685 | 17478 ft | 305 kts | 311° |
| 2026-04-20 17:07 | 39.37546 | 15.42562 | 17812 ft | 310 kts | 311° |
| 2026-04-20 17:08 | 39.38943 | 15.40403 | 18141 ft | 316 kts | 311° |
| 2026-04-20 17:08 | 39.40363 | 15.38208 | 18455 ft | 321 kts | 311° |
| 2026-04-20 17:08 | 39.41806 | 15.35975 | 18740 ft | 326 kts | 311° |
| 2026-04-20 17:08 | 39.43271 | 15.33706 | 19019 ft | 331 kts | 310° |
| 2026-04-20 17:09 | 39.44755 | 15.31405 | 19319 ft | 336 kts | 310° |
| 2026-04-20 17:09 | 39.46241 | 15.29100 | 19604 ft | 340 kts | 310° |
| 2026-04-20 17:09 | 39.47767 | 15.26732 | 19906 ft | 345 kts | 310° |
| 2026-04-20 17:09 | 39.49311 | 15.24332 | 20201 ft | 349 kts | 310° |
| 2026-04-20 17:10 | 39.50873 | 15.21904 | 20510 ft | 353 kts | 310° |
| 2026-04-20 17:10 | 39.52451 | 15.19449 | 20802 ft | 357 kts | 310° |
| 2026-04-20 17:10 | 39.54047 | 15.16964 | 21049 ft | 362 kts | 310° |
| 2026-04-20 17:10 | 39.55677 | 15.14424 | 21031 ft | 371 kts | 310° |
| 2026-04-20 17:11 | 39.57337 | 15.11836 | 21031 ft | 375 kts | 310° |
| 2026-04-20 17:11 | 39.59004 | 15.09234 | 21020 ft | 373 kts | 310° |
| 2026-04-20 17:11 | 39.60627 | 15.06696 | 21020 ft | 369 kts | 310° |
| 2026-04-20 17:11 | 39.62136 | 15.04337 | 21016 ft | 366 kts | 310° |
| 2026-04-20 17:12 | 39.63756 | 15.01801 | 21013 ft | 364 kts | 310° |
| 2026-04-20 17:12 | 39.65381 | 14.99256 | 21032 ft | 368 kts | 310° |
| 2026-04-20 17:12 | 39.67023 | 14.96683 | 21032 ft | 372 kts | 310° |
| 2026-04-20 17:12 | 39.68674 | 14.94094 | 21019 ft | 371 kts | 310° |
| 2026-04-20 17:13 | 39.70315 | 14.91519 | 21009 ft | 369 kts | 310° |
| 2026-04-20 17:13 | 39.71947 | 14.88954 | 21016 ft | 368 kts | 310° |
| 2026-04-20 17:13 | 39.73575 | 14.86394 | 21016 ft | 367 kts | 310° |
| 2026-04-20 17:13 | 39.75175 | 14.83875 | 21018 ft | 366 kts | 310° |
| 2026-04-20 17:14 | 39.76798 | 14.81320 | 21024 ft | 367 kts | 310° |
| 2026-04-20 17:14 | 39.78422 | 14.78760 | 21027 ft | 367 kts | 310° |
| 2026-04-20 17:14 | 39.80050 | 14.76193 | 21029 ft | 368 kts | 310° |
| 2026-04-20 17:14 | 39.81681 | 14.73619 | 21027 ft | 369 kts | 310° |
| 2026-04-20 17:15 | 39.83314 | 14.71040 | 21027 ft | 370 kts | 310° |
| 2026-04-20 17:15 | 39.84950 | 14.68454 | 21025 ft | 371 kts | 309° |
| 2026-04-20 17:15 | 39.86590 | 14.65859 | 21025 ft | 371 kts | 309° |
| 2026-04-20 17:15 | 39.88206 | 14.63299 | 21023 ft | 371 kts | 309° |
| 2026-04-20 17:16 | 39.89844 | 14.60702 | 21023 ft | 371 kts | 309° |
| 2026-04-20 17:16 | 39.91482 | 14.58103 | 21021 ft | 371 kts | 309° |
| 2026-04-20 17:16 | 39.93118 | 14.55505 | 21021 ft | 371 kts | 309° |
| 2026-04-20 17:16 | 39.94752 | 14.52908 | 21022 ft | 370 kts | 309° |
| 2026-04-20 17:17 | 39.96383 | 14.50315 | 21019 ft | 370 kts | 309° |
| 2026-04-20 17:17 | 39.98010 | 14.47725 | 21021 ft | 369 kts | 309° |
| 2026-04-20 17:17 | 39.99634 | 14.45136 | 21020 ft | 369 kts | 309° |
| 2026-04-20 17:17 | 40.01235 | 14.42583 | 21017 ft | 368 kts | 309° |
| 2026-04-20 17:18 | 40.02854 | 14.40000 | 21015 ft | 368 kts | 309° |
| 2026-04-20 17:18 | 40.04473 | 14.37415 | 21016 ft | 368 kts | 309° |
| 2026-04-20 17:18 | 40.06091 | 14.34828 | 21018 ft | 368 kts | 309° |
| 2026-04-20 17:18 | 40.07706 | 14.32245 | 21016 ft | 367 kts | 309° |
| 2026-04-20 17:19 | 40.09320 | 14.29659 | 21018 ft | 367 kts | 309° |
| 2026-04-20 17:19 | 40.10936 | 14.27070 | 21016 ft | 368 kts | 309° |
| 2026-04-20 17:19 | 40.12550 | 14.24482 | 21007 ft | 368 kts | 309° |
| 2026-04-20 17:19 | 40.14038 | 14.22094 | 20864 ft | 361 kts | 309° |
| 2026-04-20 17:20 | 40.15548 | 14.19719 | 20731 ft | 352 kts | 313° |
| 2026-04-20 17:20 | 40.17395 | 14.17701 | 20415 ft | 346 kts | 332° |
| 2026-04-20 17:20 | 40.19682 | 14.16817 | 19967 ft | 342 kts | 351° |
| 2026-04-20 17:20 | 40.22047 | 14.16781 | 19525 ft | 340 kts | 4° |
| 2026-04-20 17:21 | 40.24341 | 14.17503 | 19101 ft | 339 kts | 15° |
| 2026-04-20 17:21 | 40.26535 | 14.18579 | 18671 ft | 335 kts | 18° |
| 2026-04-20 17:21 | 40.28683 | 14.19700 | 18249 ft | 330 kts | 17° |
| 2026-04-20 17:21 | 40.30813 | 14.20744 | 17763 ft | 325 kts | 15° |
| 2026-04-20 17:22 | 40.32933 | 14.21717 | 17285 ft | 320 kts | 15° |
| 2026-04-20 17:22 | 40.34999 | 14.22654 | 16830 ft | 317 kts | 15° |
| 2026-04-20 17:22 | 40.37008 | 14.23571 | 16373 ft | 313 kts | 15° |
| 2026-04-20 17:22 | 40.39054 | 14.24513 | 15923 ft | 310 kts | 16° |
| 2026-04-20 17:23 | 40.41079 | 14.25452 | 15466 ft | 307 kts | 16° |
| 2026-04-20 17:23 | 40.43082 | 14.26386 | 15037 ft | 304 kts | 16° |
| 2026-04-20 17:23 | 40.45069 | 14.27315 | 14603 ft | 302 kts | 17° |
| 2026-04-20 17:23 | 40.47036 | 14.28236 | 14175 ft | 299 kts | 17° |
| 2026-04-20 17:24 | 40.48989 | 14.29152 | 13742 ft | 297 kts | 17° |
| 2026-04-20 17:24 | 40.50928 | 14.30062 | 13272 ft | 295 kts | 17° |
| 2026-04-20 17:24 | 40.52823 | 14.30952 | 12811 ft | 293 kts | 17° |
| 2026-04-20 17:24 | 40.54736 | 14.31851 | 12345 ft | 291 kts | 17° |
| 2026-04-20 17:25 | 40.56633 | 14.32744 | 11898 ft | 289 kts | 17° |
| 2026-04-20 17:25 | 40.58462 | 14.33809 | 11420 ft | 290 kts | 33° |
| 2026-04-20 17:25 | 40.59901 | 14.35660 | 11018 ft | 289 kts | 46° |
| 2026-04-20 17:25 | 40.61198 | 14.37680 | 10574 ft | 289 kts | 47° |
| 2026-04-20 17:26 | 40.62528 | 14.39653 | 10152 ft | 287 kts | 45° |
| 2026-04-20 17:26 | 40.63885 | 14.41577 | 9709 ft | 286 kts | 45° |
| 2026-04-20 17:26 | 40.65223 | 14.43466 | 9247 ft | 286 kts | 45° |
| 2026-04-20 17:26 | 40.66574 | 14.45384 | 8780 ft | 285 kts | 45° |
| 2026-04-20 17:27 | 40.67918 | 14.47301 | 8337 ft | 285 kts | 45° |
| 2026-04-20 17:27 | 40.69253 | 14.49210 | 8054 ft | 278 kts | 46° |
| 2026-04-20 17:27 | 40.70504 | 14.51055 | 7998 ft | 262 kts | 46° |
| 2026-04-20 17:27 | 40.71664 | 14.52801 | 7989 ft | 244 kts | 47° |
| 2026-04-20 17:28 | 40.72780 | 14.54483 | 8030 ft | 249 kts | 47° |
| 2026-04-20 17:28 | 40.73926 | 14.56208 | 8005 ft | 247 kts | 46° |
| 2026-04-20 17:28 | 40.75042 | 14.57886 | 8004 ft | 240 kts | 46° |
| 2026-04-20 17:28 | 40.76134 | 14.59529 | 8045 ft | 238 kts | 46° |
| 2026-04-20 17:29 | 40.77222 | 14.61162 | 8047 ft | 244 kts | 46° |
| 2026-04-20 17:29 | 40.78353 | 14.62861 | 8040 ft | 248 kts | 46° |
| 2026-04-20 17:29 | 40.79629 | 14.64321 | 7995 ft | 239 kts | 21° |
| 2026-04-20 17:29 | 40.81212 | 14.64738 | 8010 ft | 231 kts | 353° |
| 2026-04-20 17:30 | 40.82751 | 14.64207 | 8030 ft | 230 kts | 331° |
| 2026-04-20 17:30 | 40.84146 | 14.63137 | 8024 ft | 234 kts | 326° |
| 2026-04-20 17:30 | 40.85507 | 14.61984 | 8013 ft | 231 kts | 326° |
| 2026-04-20 17:30 | 40.86851 | 14.60857 | 8003 ft | 226 kts | 326° |
| 2026-04-20 17:31 | 40.88187 | 14.59770 | 8000 ft | 226 kts | 332° |
| 2026-04-20 17:31 | 40.89711 | 14.59376 | 8023 ft | 233 kts | 4° |
| 2026-04-20 17:31 | 40.91229 | 14.60162 | 8007 ft | 242 kts | 37° |
| 2026-04-20 17:31 | 40.92328 | 14.61862 | 8025 ft | 247 kts | 54° |
| 2026-04-20 17:32 | 40.93228 | 14.63808 | 8034 ft | 249 kts | 57° |
| 2026-04-20 17:32 | 40.94115 | 14.65792 | 8010 ft | 250 kts | 57° |
| 2026-04-20 17:32 | 40.95008 | 14.67753 | 8002 ft | 248 kts | 56° |
| 2026-04-20 17:32 | 40.95901 | 14.69686 | 7991 ft | 244 kts | 55° |
| 2026-04-20 17:33 | 40.96788 | 14.71593 | 8004 ft | 243 kts | 56° |
| 2026-04-20 17:33 | 40.97671 | 14.73487 | 7868 ft | 246 kts | 55° |
| 2026-04-20 17:33 | 40.98562 | 14.75396 | 7635 ft | 240 kts | 56° |
| 2026-04-20 17:33 | 40.99421 | 14.77235 | 7423 ft | 230 kts | 56° |
| 2026-04-20 17:34 | 41.00249 | 14.79008 | 7204 ft | 222 kts | 56° |
| 2026-04-20 17:34 | 41.01045 | 14.80714 | 7064 ft | 216 kts | 56° |
| 2026-04-20 17:34 | 41.01834 | 14.82403 | 7040 ft | 215 kts | 56° |
| 2026-04-20 17:34 | 41.02614 | 14.84076 | 7034 ft | 212 kts | 55° |
| 2026-04-20 17:35 | 41.03382 | 14.85720 | 7014 ft | 208 kts | 53° |
| 2026-04-20 17:35 | 41.04440 | 14.86922 | 7033 ft | 203 kts | 14° |
| 2026-04-20 17:35 | 41.05807 | 14.87069 | 7017 ft | 198 kts | 341° |
| 2026-04-20 17:35 | 41.07032 | 14.86352 | 7025 ft | 193 kts | 326° |
| 2026-04-20 17:36 | 41.08166 | 14.85426 | 7033 ft | 191 kts | 325° |
| 2026-04-20 17:36 | 41.09289 | 14.84494 | 7033 ft | 192 kts | 325° |
| 2026-04-20 17:36 | 41.10418 | 14.83561 | 7032 ft | 191 kts | 325° |
| 2026-04-20 17:36 | 41.11529 | 14.82605 | 7019 ft | 189 kts | 317° |
| 2026-04-20 17:37 | 41.12222 | 14.81190 | 7017 ft | 184 kts | 281° |
| 2026-04-20 17:37 | 41.12152 | 14.79517 | 7023 ft | 186 kts | 252° |
| 2026-04-20 17:37 | 41.11757 | 14.77886 | 7001 ft | 187 kts | 270° |
| 2026-04-20 17:37 | 41.12217 | 14.76385 | 7031 ft | 185 kts | 317° |
| 2026-04-20 17:38 | 41.13399 | 14.75684 | 7060 ft | 190 kts | 339° |
| 2026-04-20 17:38 | 41.14477 | 14.74736 | 7014 ft | 186 kts | 299° |
| 2026-04-20 17:38 | 41.14654 | 14.73094 | 7030 ft | 187 kts | 253° |
| 2026-04-20 17:38 | 41.13811 | 14.71792 | 7035 ft | 197 kts | 208° |
| 2026-04-20 17:39 | 41.12451 | 14.71404 | 7055 ft | 203 kts | 193° |
| 2026-04-20 17:39 | 41.11097 | 14.70894 | 7029 ft | 202 kts | 207° |
| 2026-04-20 17:39 | 41.09877 | 14.70015 | 7033 ft | 198 kts | 217° |
| 2026-04-20 17:39 | 41.08796 | 14.68940 | 7032 ft | 196 kts | 224° |
| 2026-04-20 17:40 | 41.07805 | 14.67721 | 7024 ft | 193 kts | 229° |
| 2026-04-20 17:40 | 41.06884 | 14.66434 | 7040 ft | 192 kts | 231° |
| 2026-04-20 17:40 | 41.06004 | 14.65091 | 6872 ft | 195 kts | 232° |
| 2026-04-20 17:40 | 41.05144 | 14.63723 | 6630 ft | 192 kts | 234° |
| 2026-04-20 17:41 | 41.04358 | 14.62318 | 6366 ft | 188 kts | 237° |
| 2026-04-20 17:41 | 41.03638 | 14.60903 | 6084 ft | 181 kts | 239° |
| 2026-04-20 17:41 | 41.02968 | 14.59528 | 5823 ft | 174 kts | 240° |
| 2026-04-20 17:41 | 41.02337 | 14.58211 | 5570 ft | 165 kts | 240° |
| 2026-04-20 17:42 | 41.01860 | 14.57203 | 5351 ft | 156 kts | 240° |
| 2026-04-20 17:42 | 41.01290 | 14.56001 | 5209 ft | 160 kts | 240° |
| 2026-04-20 17:42 | 41.00690 | 14.54727 | 4935 ft | 162 kts | 239° |
| 2026-04-20 17:42 | 41.00097 | 14.53474 | 4683 ft | 159 kts | 240° |
| 2026-04-20 17:43 | 40.99514 | 14.52240 | 4447 ft | 155 kts | 239° |
| 2026-04-20 17:43 | 40.98942 | 14.51029 | 4236 ft | 157 kts | 239° |
| 2026-04-20 17:43 | 40.98360 | 14.49796 | 4004 ft | 160 kts | 239° |
| 2026-04-20 17:43 | 40.97766 | 14.48537 | 3769 ft | 163 kts | 239° |
| 2026-04-20 17:44 | 40.97164 | 14.47261 | 3522 ft | 165 kts | 238° |
| 2026-04-20 17:44 | 40.96552 | 14.45963 | 3284 ft | 166 kts | 239° |
| 2026-04-20 17:44 | 40.95963 | 14.44715 | 3024 ft | 157 kts | 238° |
| 2026-04-20 17:44 | 40.95406 | 14.43534 | 2791 ft | 147 kts | 239° |
| 2026-04-20 17:45 | 40.94864 | 14.42382 | 2590 ft | 148 kts | 238° |
| 2026-04-20 17:45 | 40.94329 | 14.41246 | 2389 ft | 147 kts | 237° |
| 2026-04-20 17:45 | 40.93796 | 14.40115 | 2157 ft | 143 kts | 234° |
| 2026-04-20 17:45 | 40.93216 | 14.39061 | 1949 ft | 141 kts | 230° |
| 2026-04-20 17:46 | 40.92717 | 14.37941 | 1746 ft | 141 kts | 238° |
| 2026-04-20 17:46 | 40.92227 | 14.36807 | 1528 ft | 144 kts | 234° |
| 2026-04-20 17:46 | 40.91710 | 14.35687 | 1340 ft | 146 kts | 234° |
| 2026-04-20 17:46 | 40.91170 | 14.34536 | 1102 ft | 147 kts | 233° |
| 2026-04-20 17:47 | 40.90638 | 14.33411 | 890 ft | 141 kts | 230° |
| 2026-04-20 17:47 | 40.90108 | 14.32331 | 662 ft | 141 kts | 232° |
| 2026-04-20 17:47 | 40.89598 | 14.31232 | 453 ft | 141 kts | 236° |
| 2026-04-20 17:47 | 40.89094 | 14.30155 | 292 ft | 135 kts | 239° |
| 2026-04-20 17:48 | 40.88668 | 14.29201 | 263 ft | 81 kts | 238° |
| 2026-04-20 17:48 | 40.88547 | 14.28955 | 269 ft | 3 kts | 237° |
| 2026-04-20 17:48 | 40.88478 | 14.28821 | 272 ft | 22 kts | 234° |
| 2026-04-20 17:48 | 40.88349 | 14.28821 | 274 ft | 21 kts | 142° |
| 2026-04-20 17:49 | 40.88236 | 14.28894 | 275 ft | 0 kts | 190° |
| 2026-04-20 17:49 | 40.88202 | 14.28862 | 277 ft | 13 kts | 242° |
| 2026-04-20 17:49 | 40.88222 | 14.28805 | 277 ft | 0 kts | 327° |